sensor_id;sensor_type;location;lat;lon;timestamp;P1;durP1;ratioP1;P2;durP2;ratioP2
65172;SDS011;69059;52.218;5.172;2023-06-14T00:01:02;8.90;;;2.93;;
65172;SDS011;69059;52.218;5.172;2023-06-14T00:03:32;5.07;;;2.63;;
65172;SDS011;69059;52.218;5.172;2023-06-14T00:06:00;6.50;;;3.05;;
65172;SDS011;69059;52.218;5.172;2023-06-14T00:08:28;6.03;;;2.90;;
65172;SDS011;69059;52.218;5.172;2023-06-14T00:10:55;7.63;;;2.58;;
65172;SDS011;69059;52.218;5.172;2023-06-14T00:13:24;5.00;;;2.47;;
65172;SDS011;69059;52.218;5.172;2023-06-14T00:15:52;8.77;;;3.00;;
65172;SDS011;69059;52.218;5.172;2023-06-14T00:18:21;6.97;;;2.60;;
65172;SDS011;69059;52.218;5.172;2023-06-14T00:20:50;9.47;;;2.60;;
65172;SDS011;69059;52.218;5.172;2023-06-14T00:25:46;7.93;;;2.85;;
65172;SDS011;69059;52.218;5.172;2023-06-14T00:28:14;4.20;;;2.50;;
65172;SDS011;69059;52.218;5.172;2023-06-14T00:30:44;9.60;;;2.65;;
65172;SDS011;69059;52.218;5.172;2023-06-14T00:33:13;8.33;;;2.93;;
65172;SDS011;69059;52.218;5.172;2023-06-14T00:35:41;6.35;;;2.70;;
65172;SDS011;69059;52.218;5.172;2023-06-14T00:38:09;7.40;;;2.40;;
65172;SDS011;69059;52.218;5.172;2023-06-14T00:40:37;5.45;;;2.72;;
65172;SDS011;69059;52.218;5.172;2023-06-14T00:43:04;5.88;;;2.67;;
65172;SDS011;69059;52.218;5.172;2023-06-14T00:45:32;6.72;;;2.78;;
65172;SDS011;69059;52.218;5.172;2023-06-14T00:48:03;3.73;;;2.40;;
65172;SDS011;69059;52.218;5.172;2023-06-14T00:50:33;4.97;;;2.67;;
65172;SDS011;69059;52.218;5.172;2023-06-14T00:53:02;6.33;;;2.77;;
65172;SDS011;69059;52.218;5.172;2023-06-14T00:55:30;5.30;;;2.70;;
65172;SDS011;69059;52.218;5.172;2023-06-14T00:57:59;4.82;;;2.78;;
65172;SDS011;69059;52.218;5.172;2023-06-14T01:00:27;6.63;;;2.70;;
65172;SDS011;69059;52.218;5.172;2023-06-14T01:02:55;3.97;;;2.55;;
65172;SDS011;69059;52.218;5.172;2023-06-14T01:05:25;5.47;;;2.40;;
65172;SDS011;69059;52.218;5.172;2023-06-14T01:08:01;6.67;;;2.53;;
65172;SDS011;69059;52.218;5.172;2023-06-14T01:10:43;6.47;;;2.75;;
65172;SDS011;69059;52.218;5.172;2023-06-14T01:13:20;7.17;;;2.93;;
65172;SDS011;69059;52.218;5.172;2023-06-14T01:15:51;5.73;;;2.50;;
65172;SDS011;69059;52.218;5.172;2023-06-14T01:18:20;3.93;;;2.60;;
65172;SDS011;69059;52.218;5.172;2023-06-14T01:20:51;3.80;;;2.53;;
65172;SDS011;69059;52.218;5.172;2023-06-14T01:23:22;6.63;;;3.00;;
65172;SDS011;69059;52.218;5.172;2023-06-14T01:25:51;6.87;;;2.87;;
65172;SDS011;69059;52.218;5.172;2023-06-14T01:28:20;6.05;;;2.90;;
65172;SDS011;69059;52.218;5.172;2023-06-14T01:30:49;5.83;;;2.80;;
65172;SDS011;69059;52.218;5.172;2023-06-14T01:33:20;9.33;;;2.70;;
65172;SDS011;69059;52.218;5.172;2023-06-14T01:35:50;8.70;;;2.90;;
65172;SDS011;69059;52.218;5.172;2023-06-14T01:38:19;8.47;;;2.70;;
65172;SDS011;69059;52.218;5.172;2023-06-14T01:40:50;7.77;;;2.90;;
65172;SDS011;69059;52.218;5.172;2023-06-14T01:43:20;5.93;;;2.53;;
65172;SDS011;69059;52.218;5.172;2023-06-14T01:45:48;3.60;;;2.55;;
65172;SDS011;69059;52.218;5.172;2023-06-14T01:48:18;5.70;;;2.37;;
65172;SDS011;69059;52.218;5.172;2023-06-14T01:50:47;5.97;;;2.60;;
65172;SDS011;69059;52.218;5.172;2023-06-14T01:53:15;6.55;;;2.67;;
65172;SDS011;69059;52.218;5.172;2023-06-14T01:55:43;5.57;;;2.60;;
65172;SDS011;69059;52.218;5.172;2023-06-14T01:58:16;4.10;;;2.47;;
65172;SDS011;69059;52.218;5.172;2023-06-14T02:00:45;8.00;;;3.17;;
65172;SDS011;69059;52.218;5.172;2023-06-14T02:03:13;4.27;;;2.70;;
65172;SDS011;69059;52.218;5.172;2023-06-14T02:05:41;5.50;;;2.60;;
65172;SDS011;69059;52.218;5.172;2023-06-14T02:08:09;5.85;;;2.40;;
65172;SDS011;69059;52.218;5.172;2023-06-14T02:10:37;6.43;;;2.45;;
65172;SDS011;69059;52.218;5.172;2023-06-14T02:13:05;7.40;;;2.78;;
65172;SDS011;69059;52.218;5.172;2023-06-14T02:15:35;4.60;;;2.50;;
65172;SDS011;69059;52.218;5.172;2023-06-14T02:18:03;5.63;;;2.37;;
65172;SDS011;69059;52.218;5.172;2023-06-14T02:20:31;3.10;;;2.20;;
65172;SDS011;69059;52.218;5.172;2023-06-14T02:22:59;6.20;;;2.83;;
65172;SDS011;69059;52.218;5.172;2023-06-14T02:25:27;4.80;;;2.30;;
65172;SDS011;69059;52.218;5.172;2023-06-14T02:27:55;9.10;;;2.70;;
65172;SDS011;69059;52.218;5.172;2023-06-14T02:30:23;5.70;;;2.65;;
65172;SDS011;69059;52.218;5.172;2023-06-14T02:32:52;6.20;;;2.58;;
65172;SDS011;69059;52.218;5.172;2023-06-14T02:35:20;6.90;;;2.50;;
65172;SDS011;69059;52.218;5.172;2023-06-14T02:37:50;6.33;;;2.30;;
65172;SDS011;69059;52.218;5.172;2023-06-14T02:40:18;4.03;;;2.38;;
65172;SDS011;69059;52.218;5.172;2023-06-14T02:42:46;3.47;;;2.38;;
65172;SDS011;69059;52.218;5.172;2023-06-14T02:45:14;6.00;;;2.60;;
65172;SDS011;69059;52.218;5.172;2023-06-14T02:47:42;3.55;;;2.30;;
65172;SDS011;69059;52.218;5.172;2023-06-14T02:50:11;4.97;;;2.45;;
65172;SDS011;69059;52.218;5.172;2023-06-14T02:52:40;7.07;;;2.33;;
65172;SDS011;69059;52.218;5.172;2023-06-14T02:55:08;5.30;;;2.60;;
65172;SDS011;69059;52.218;5.172;2023-06-14T02:57:36;5.82;;;2.42;;
65172;SDS011;69059;52.218;5.172;2023-06-14T03:00:04;4.72;;;2.30;;
65172;SDS011;69059;52.218;5.172;2023-06-14T03:02:36;4.93;;;2.43;;
65172;SDS011;69059;52.218;5.172;2023-06-14T03:05:04;7.20;;;2.85;;
65172;SDS011;69059;52.218;5.172;2023-06-14T03:07:34;9.23;;;2.57;;
65172;SDS011;69059;52.218;5.172;2023-06-14T03:10:07;9.47;;;2.30;;
65172;SDS011;69059;52.218;5.172;2023-06-14T03:12:36;7.43;;;2.60;;
65172;SDS011;69059;52.218;5.172;2023-06-14T03:15:04;7.25;;;2.42;;
65172;SDS011;69059;52.218;5.172;2023-06-14T03:17:32;4.70;;;2.43;;
65172;SDS011;69059;52.218;5.172;2023-06-14T03:20:01;6.80;;;2.70;;
65172;SDS011;69059;52.218;5.172;2023-06-14T03:22:29;6.57;;;2.28;;
65172;SDS011;69059;52.218;5.172;2023-06-14T03:25:00;5.33;;;2.60;;
65172;SDS011;69059;52.218;5.172;2023-06-14T03:27:30;4.77;;;2.40;;
65172;SDS011;69059;52.218;5.172;2023-06-14T03:29:58;4.55;;;2.50;;
65172;SDS011;69059;52.218;5.172;2023-06-14T03:32:26;6.20;;;2.30;;
65172;SDS011;69059;52.218;5.172;2023-06-14T03:34:54;4.65;;;2.40;;
65172;SDS011;69059;52.218;5.172;2023-06-14T03:37:22;6.50;;;2.40;;
65172;SDS011;69059;52.218;5.172;2023-06-14T03:39:50;8.15;;;2.33;;
65172;SDS011;69059;52.218;5.172;2023-06-14T03:42:20;3.72;;;2.22;;
65172;SDS011;69059;52.218;5.172;2023-06-14T03:44:48;3.63;;;2.43;;
65172;SDS011;69059;52.218;5.172;2023-06-14T03:47:15;6.93;;;2.80;;
65172;SDS011;69059;52.218;5.172;2023-06-14T03:49:43;4.38;;;2.72;;
65172;SDS011;69059;52.218;5.172;2023-06-14T03:52:11;5.63;;;2.30;;
65172;SDS011;69059;52.218;5.172;2023-06-14T03:54:40;4.70;;;2.30;;
65172;SDS011;69059;52.218;5.172;2023-06-14T03:57:30;7.93;;;2.47;;
65172;SDS011;69059;52.218;5.172;2023-06-14T03:59:58;5.03;;;2.37;;
65172;SDS011;69059;52.218;5.172;2023-06-14T04:02:26;3.90;;;2.38;;
65172;SDS011;69059;52.218;5.172;2023-06-14T04:04:55;4.50;;;2.40;;
65172;SDS011;69059;52.218;5.172;2023-06-14T04:07:23;4.72;;;2.22;;
65172;SDS011;69059;52.218;5.172;2023-06-14T04:09:51;4.50;;;2.40;;
65172;SDS011;69059;52.218;5.172;2023-06-14T04:12:19;5.03;;;2.78;;
65172;SDS011;69059;52.218;5.172;2023-06-14T04:14:48;6.88;;;2.35;;
65172;SDS011;69059;52.218;5.172;2023-06-14T04:17:16;8.40;;;2.53;;
65172;SDS011;69059;52.218;5.172;2023-06-14T04:19:43;3.47;;;2.20;;
65172;SDS011;69059;52.218;5.172;2023-06-14T04:22:11;8.38;;;2.55;;
65172;SDS011;69059;52.218;5.172;2023-06-14T04:24:39;15.20;;;2.65;;
65172;SDS011;69059;52.218;5.172;2023-06-14T04:27:08;5.10;;;2.63;;
65172;SDS011;69059;52.218;5.172;2023-06-14T04:29:36;4.28;;;2.30;;
65172;SDS011;69059;52.218;5.172;2023-06-14T04:32:07;6.47;;;2.87;;
65172;SDS011;69059;52.218;5.172;2023-06-14T04:34:36;7.80;;;2.40;;
65172;SDS011;69059;52.218;5.172;2023-06-14T04:37:06;6.57;;;2.60;;
65172;SDS011;69059;52.218;5.172;2023-06-14T04:39:34;5.60;;;2.30;;
65172;SDS011;69059;52.218;5.172;2023-06-14T04:42:02;3.72;;;2.40;;
65172;SDS011;69059;52.218;5.172;2023-06-14T04:44:30;6.73;;;2.43;;
65172;SDS011;69059;52.218;5.172;2023-06-14T04:46:58;2.80;;;2.50;;
65172;SDS011;69059;52.218;5.172;2023-06-14T04:49:28;2.30;;;2.10;;
65172;SDS011;69059;52.218;5.172;2023-06-14T04:51:58;6.43;;;2.33;;
65172;SDS011;69059;52.218;5.172;2023-06-14T04:54:28;8.17;;;2.50;;
65172;SDS011;69059;52.218;5.172;2023-06-14T04:56:58;4.53;;;2.43;;
65172;SDS011;69059;52.218;5.172;2023-06-14T04:59:25;4.22;;;2.83;;
65172;SDS011;69059;52.218;5.172;2023-06-14T05:01:53;6.95;;;2.80;;
65172;SDS011;69059;52.218;5.172;2023-06-14T05:04:23;4.87;;;2.30;;
65172;SDS011;69059;52.218;5.172;2023-06-14T05:06:54;5.93;;;2.60;;
65172;SDS011;69059;52.218;5.172;2023-06-14T05:09:21;6.80;;;2.50;;
65172;SDS011;69059;52.218;5.172;2023-06-14T05:11:49;8.82;;;2.78;;
65172;SDS011;69059;52.218;5.172;2023-06-14T05:14:17;4.13;;;2.75;;
65172;SDS011;69059;52.218;5.172;2023-06-14T05:16:46;6.45;;;2.40;;
65172;SDS011;69059;52.218;5.172;2023-06-14T05:19:15;5.63;;;2.40;;
65172;SDS011;69059;52.218;5.172;2023-06-14T05:21:44;4.50;;;2.40;;
65172;SDS011;69059;52.218;5.172;2023-06-14T05:24:15;4.40;;;2.20;;
65172;SDS011;69059;52.218;5.172;2023-06-14T05:26:43;5.20;;;2.60;;
65172;SDS011;69059;52.218;5.172;2023-06-14T05:29:11;8.20;;;2.45;;
65172;SDS011;69059;52.218;5.172;2023-06-14T05:31:39;4.57;;;2.53;;
65172;SDS011;69059;52.218;5.172;2023-06-14T05:34:07;5.20;;;2.65;;
65172;SDS011;69059;52.218;5.172;2023-06-14T05:36:35;4.57;;;2.40;;
65172;SDS011;69059;52.218;5.172;2023-06-14T05:39:03;4.65;;;2.70;;
65172;SDS011;69059;52.218;5.172;2023-06-14T05:41:34;5.67;;;2.80;;
65172;SDS011;69059;52.218;5.172;2023-06-14T05:44:02;5.70;;;2.70;;
65172;SDS011;69059;52.218;5.172;2023-06-14T05:46:30;5.03;;;2.63;;
65172;SDS011;69059;52.218;5.172;2023-06-14T05:48:58;7.88;;;2.90;;
65172;SDS011;69059;52.218;5.172;2023-06-14T05:51:25;6.00;;;2.67;;
65172;SDS011;69059;52.218;5.172;2023-06-14T05:53:53;5.90;;;3.08;;
65172;SDS011;69059;52.218;5.172;2023-06-14T05:56:22;5.83;;;2.60;;
65172;SDS011;69059;52.218;5.172;2023-06-14T05:58:51;6.93;;;3.03;;
65172;SDS011;69059;52.218;5.172;2023-06-14T06:01:19;6.43;;;2.97;;
65172;SDS011;69059;52.218;5.172;2023-06-14T06:03:47;4.63;;;2.75;;
65172;SDS011;69059;52.218;5.172;2023-06-14T06:06:15;7.25;;;2.72;;
65172;SDS011;69059;52.218;5.172;2023-06-14T06:08:43;4.05;;;2.60;;
65172;SDS011;69059;52.218;5.172;2023-06-14T06:11:11;5.03;;;2.95;;
65172;SDS011;69059;52.218;5.172;2023-06-14T06:13:39;5.85;;;2.70;;
65172;SDS011;69059;52.218;5.172;2023-06-14T06:16:09;7.72;;;2.90;;
65172;SDS011;69059;52.218;5.172;2023-06-14T06:18:36;5.97;;;2.60;;
65172;SDS011;69059;52.218;5.172;2023-06-14T06:21:05;4.38;;;2.75;;
65172;SDS011;69059;52.218;5.172;2023-06-14T06:23:33;5.93;;;2.87;;
65172;SDS011;69059;52.218;5.172;2023-06-14T06:26:01;6.38;;;2.80;;
65172;SDS011;69059;52.218;5.172;2023-06-14T06:28:30;6.30;;;2.90;;
65172;SDS011;69059;52.218;5.172;2023-06-14T06:30:58;6.78;;;2.42;;
65172;SDS011;69059;52.218;5.172;2023-06-14T06:33:31;4.37;;;2.90;;
65172;SDS011;69059;52.218;5.172;2023-06-14T06:35:59;4.67;;;2.73;;
65172;SDS011;69059;52.218;5.172;2023-06-14T06:38:27;4.88;;;2.80;;
65172;SDS011;69059;52.218;5.172;2023-06-14T06:40:54;6.18;;;2.67;;
65172;SDS011;69059;52.218;5.172;2023-06-14T06:43:23;5.63;;;3.00;;
65172;SDS011;69059;52.218;5.172;2023-06-14T06:45:50;5.60;;;3.05;;
65172;SDS011;69059;52.218;5.172;2023-06-14T06:48:18;9.25;;;2.75;;
65172;SDS011;69059;52.218;5.172;2023-06-14T06:50:47;4.97;;;2.85;;
65172;SDS011;69059;52.218;5.172;2023-06-14T06:53:15;6.47;;;2.60;;
65172;SDS011;69059;52.218;5.172;2023-06-14T06:56:00;6.43;;;2.60;;
65172;SDS011;69059;52.218;5.172;2023-06-14T06:58:28;10.48;;;2.80;;
65172;SDS011;69059;52.218;5.172;2023-06-14T07:00:56;3.05;;;2.50;;
65172;SDS011;69059;52.218;5.172;2023-06-14T07:03:23;6.38;;;2.85;;
65172;SDS011;69059;52.218;5.172;2023-06-14T07:05:53;8.38;;;2.83;;
65172;SDS011;69059;52.218;5.172;2023-06-14T07:08:20;6.70;;;2.53;;
65172;SDS011;69059;52.218;5.172;2023-06-14T07:10:48;3.88;;;2.28;;
65172;SDS011;69059;52.218;5.172;2023-06-14T07:13:16;7.20;;;2.72;;
65172;SDS011;69059;52.218;5.172;2023-06-14T07:15:44;6.20;;;2.50;;
65172;SDS011;69059;52.218;5.172;2023-06-14T07:18:11;5.68;;;2.70;;
65172;SDS011;69059;52.218;5.172;2023-06-14T07:20:42;8.38;;;2.60;;
65172;SDS011;69059;52.218;5.172;2023-06-14T07:23:11;8.38;;;2.35;;
65172;SDS011;69059;52.218;5.172;2023-06-14T07:25:39;5.82;;;2.47;;
65172;SDS011;69059;52.218;5.172;2023-06-14T07:28:07;4.18;;;2.33;;
65172;SDS011;69059;52.218;5.172;2023-06-14T07:30:35;8.00;;;2.35;;
65172;SDS011;69059;52.218;5.172;2023-06-14T07:33:02;4.93;;;2.38;;
65172;SDS011;69059;52.218;5.172;2023-06-14T07:35:30;4.60;;;2.40;;
65172;SDS011;69059;52.218;5.172;2023-06-14T07:37:58;13.30;;;2.85;;
65172;SDS011;69059;52.218;5.172;2023-06-14T07:40:27;10.18;;;2.47;;
65172;SDS011;69059;52.218;5.172;2023-06-14T07:42:55;7.25;;;2.35;;
65172;SDS011;69059;52.218;5.172;2023-06-14T07:45:23;4.40;;;2.40;;
65172;SDS011;69059;52.218;5.172;2023-06-14T07:47:51;5.60;;;2.45;;
65172;SDS011;69059;52.218;5.172;2023-06-14T07:50:19;4.25;;;2.47;;
65172;SDS011;69059;52.218;5.172;2023-06-14T07:52:47;4.95;;;2.25;;
65172;SDS011;69059;52.218;5.172;2023-06-14T07:55:15;5.13;;;2.30;;
65172;SDS011;69059;52.218;5.172;2023-06-14T07:57:45;6.07;;;2.70;;
65172;SDS011;69059;52.218;5.172;2023-06-14T08:00:13;3.80;;;2.20;;
65172;SDS011;69059;52.218;5.172;2023-06-14T08:02:41;8.70;;;2.45;;
65172;SDS011;69059;52.218;5.172;2023-06-14T08:05:09;5.75;;;2.25;;
65172;SDS011;69059;52.218;5.172;2023-06-14T08:07:38;3.20;;;1.90;;
65172;SDS011;69059;52.218;5.172;2023-06-14T08:15:06;5.68;;;1.83;;
65172;SDS011;69059;52.218;5.172;2023-06-14T08:17:42;5.73;;;2.13;;
65172;SDS011;69059;52.218;5.172;2023-06-14T08:20:10;4.28;;;1.83;;
65172;SDS011;69059;52.218;5.172;2023-06-14T08:22:39;7.03;;;2.30;;
65172;SDS011;69059;52.218;5.172;2023-06-14T08:25:08;3.22;;;1.73;;
65172;SDS011;69059;52.218;5.172;2023-06-14T08:27:37;7.03;;;1.90;;
65172;SDS011;69059;52.218;5.172;2023-06-14T08:30:07;6.22;;;1.67;;
65172;SDS011;69059;52.218;5.172;2023-06-14T08:32:36;3.90;;;1.67;;
65172;SDS011;69059;52.218;5.172;2023-06-14T08:35:04;3.45;;;1.75;;
65172;SDS011;69059;52.218;5.172;2023-06-14T08:37:33;2.60;;;1.40;;
65172;SDS011;69059;52.218;5.172;2023-06-14T08:40:06;2.60;;;1.60;;
65172;SDS011;69059;52.218;5.172;2023-06-14T08:42:40;4.97;;;1.67;;
65172;SDS011;69059;52.218;5.172;2023-06-14T08:45:10;3.25;;;1.70;;
65172;SDS011;69059;52.218;5.172;2023-06-14T08:47:39;5.05;;;1.83;;
65172;SDS011;69059;52.218;5.172;2023-06-14T08:50:08;5.50;;;1.80;;
65172;SDS011;69059;52.218;5.172;2023-06-14T08:52:54;4.47;;;1.67;;
65172;SDS011;69059;52.218;5.172;2023-06-14T08:55:23;5.38;;;1.58;;
65172;SDS011;69059;52.218;5.172;2023-06-14T08:57:53;5.18;;;1.50;;
65172;SDS011;69059;52.218;5.172;2023-06-14T09:00:25;3.08;;;1.60;;
65172;SDS011;69059;52.218;5.172;2023-06-14T09:02:54;3.90;;;1.63;;
65172;SDS011;69059;52.218;5.172;2023-06-14T09:05:24;2.80;;;1.67;;
65172;SDS011;69059;52.218;5.172;2023-06-14T09:07:52;3.67;;;1.75;;
65172;SDS011;69059;52.218;5.172;2023-06-14T09:10:23;4.82;;;1.70;;
65172;SDS011;69059;52.218;5.172;2023-06-14T09:12:52;4.65;;;1.50;;
65172;SDS011;69059;52.218;5.172;2023-06-14T09:15:20;3.85;;;1.80;;
65172;SDS011;69059;52.218;5.172;2023-06-14T09:17:49;3.47;;;1.60;;
65172;SDS011;69059;52.218;5.172;2023-06-14T09:20:17;6.25;;;1.75;;
65172;SDS011;69059;52.218;5.172;2023-06-14T09:22:46;5.32;;;1.67;;
65172;SDS011;69059;52.218;5.172;2023-06-14T09:25:14;5.78;;;2.00;;
65172;SDS011;69059;52.218;5.172;2023-06-14T09:28:02;5.93;;;1.80;;
65172;SDS011;69059;52.218;5.172;2023-06-14T09:30:33;3.67;;;1.52;;
65172;SDS011;69059;52.218;5.172;2023-06-14T09:33:02;3.42;;;1.65;;
65172;SDS011;69059;52.218;5.172;2023-06-14T09:35:31;2.53;;;1.52;;
65172;SDS011;69059;52.218;5.172;2023-06-14T09:37:59;5.47;;;1.67;;
65172;SDS011;69059;52.218;5.172;2023-06-14T09:40:26;4.07;;;1.70;;
65172;SDS011;69059;52.218;5.172;2023-06-14T09:42:55;3.28;;;1.40;;
65172;SDS011;69059;52.218;5.172;2023-06-14T09:45:24;2.92;;;1.40;;
65172;SDS011;69059;52.218;5.172;2023-06-14T09:47:56;3.80;;;1.70;;
65172;SDS011;69059;52.218;5.172;2023-06-14T09:50:35;6.35;;;1.45;;
65172;SDS011;69059;52.218;5.172;2023-06-14T09:53:03;3.05;;;1.50;;
65172;SDS011;69059;52.218;5.172;2023-06-14T09:55:34;1.88;;;1.70;;
65172;SDS011;69059;52.218;5.172;2023-06-14T09:58:04;2.33;;;1.50;;
65172;SDS011;69059;52.218;5.172;2023-06-14T10:00:34;4.47;;;1.70;;
65172;SDS011;69059;52.218;5.172;2023-06-14T10:03:05;2.00;;;1.50;;
65172;SDS011;69059;52.218;5.172;2023-06-14T10:05:41;1.48;;;1.30;;
65172;SDS011;69059;52.218;5.172;2023-06-14T10:08:13;3.45;;;1.58;;
65172;SDS011;69059;52.218;5.172;2023-06-14T10:10:43;3.30;;;1.40;;
65172;SDS011;69059;52.218;5.172;2023-06-14T10:13:11;1.38;;;1.27;;
65172;SDS011;69059;52.218;5.172;2023-06-14T10:15:41;3.25;;;1.60;;
65172;SDS011;69059;52.218;5.172;2023-06-14T10:18:17;2.17;;;1.50;;
65172;SDS011;69059;52.218;5.172;2023-06-14T10:20:53;6.78;;;1.50;;
65172;SDS011;69059;52.218;5.172;2023-06-14T10:23:28;3.08;;;1.70;;
65172;SDS011;69059;52.218;5.172;2023-06-14T10:25:57;4.43;;;1.42;;
65172;SDS011;69059;52.218;5.172;2023-06-14T10:28:26;2.13;;;1.30;;
65172;SDS011;69059;52.218;5.172;2023-06-14T10:31:06;4.65;;;1.27;;
65172;SDS011;69059;52.218;5.172;2023-06-14T10:33:36;3.33;;;1.27;;
65172;SDS011;69059;52.218;5.172;2023-06-14T10:36:25;4.60;;;1.60;;
65172;SDS011;69059;52.218;5.172;2023-06-14T10:38:57;1.55;;;1.25;;
65172;SDS011;69059;52.218;5.172;2023-06-14T10:41:26;1.85;;;1.30;;
65172;SDS011;69059;52.218;5.172;2023-06-14T10:44:10;2.13;;;1.30;;
65172;SDS011;69059;52.218;5.172;2023-06-14T10:46:59;4.72;;;1.42;;
65172;SDS011;69059;52.218;5.172;2023-06-14T10:49:37;2.38;;;1.48;;
65172;SDS011;69059;52.218;5.172;2023-06-14T10:52:13;3.67;;;1.40;;
65172;SDS011;69059;52.218;5.172;2023-06-14T10:55:07;2.88;;;1.30;;
65172;SDS011;69059;52.218;5.172;2023-06-14T10:57:38;2.47;;;1.40;;
65172;SDS011;69059;52.218;5.172;2023-06-14T11:00:17;3.50;;;1.55;;
65172;SDS011;69059;52.218;5.172;2023-06-14T11:05:55;5.95;;;1.77;;
65172;SDS011;69059;52.218;5.172;2023-06-14T11:08:31;3.65;;;1.50;;
65172;SDS011;69059;52.218;5.172;2023-06-14T11:11:21;3.33;;;1.30;;
65172;SDS011;69059;52.218;5.172;2023-06-14T11:13:50;4.38;;;1.40;;
65172;SDS011;69059;52.218;5.172;2023-06-14T11:16:21;4.82;;;1.33;;
65172;SDS011;69059;52.218;5.172;2023-06-14T11:18:54;3.38;;;1.40;;
65172;SDS011;69059;52.218;5.172;2023-06-14T11:21:23;2.28;;;1.25;;
65172;SDS011;69059;52.218;5.172;2023-06-14T11:23:58;2.00;;;1.08;;
65172;SDS011;69059;52.218;5.172;2023-06-14T11:26:26;4.03;;;1.25;;
65172;SDS011;69059;52.218;5.172;2023-06-14T11:28:55;4.05;;;1.48;;
65172;SDS011;69059;52.218;5.172;2023-06-14T11:31:24;3.53;;;1.33;;
65172;SDS011;69059;52.218;5.172;2023-06-14T11:33:53;3.50;;;1.42;;
65172;SDS011;69059;52.218;5.172;2023-06-14T11:36:23;2.60;;;1.30;;
65172;SDS011;69059;52.218;5.172;2023-06-14T11:38:58;3.20;;;1.40;;
65172;SDS011;69059;52.218;5.172;2023-06-14T11:41:32;2.55;;;1.50;;
65172;SDS011;69059;52.218;5.172;2023-06-14T11:44:01;2.20;;;1.20;;
65172;SDS011;69059;52.218;5.172;2023-06-14T11:46:29;5.38;;;1.20;;
65172;SDS011;69059;52.218;5.172;2023-06-14T11:51:24;2.38;;;1.20;;
65172;SDS011;69059;52.218;5.172;2023-06-14T11:53:53;4.63;;;1.40;;
65172;SDS011;69059;52.218;5.172;2023-06-14T11:56:23;3.53;;;1.30;;
65172;SDS011;69059;52.218;5.172;2023-06-14T11:58:52;2.90;;;1.08;;
65172;SDS011;69059;52.218;5.172;2023-06-14T12:01:22;2.58;;;1.13;;
65172;SDS011;69059;52.218;5.172;2023-06-14T12:06:25;4.00;;;1.50;;
65172;SDS011;69059;52.218;5.172;2023-06-14T12:08:55;2.42;;;1.13;;
65172;SDS011;69059;52.218;5.172;2023-06-14T12:11:25;8.85;;;1.70;;
65172;SDS011;69059;52.218;5.172;2023-06-14T12:13:59;3.42;;;1.38;;
65172;SDS011;69059;52.218;5.172;2023-06-14T12:16:31;2.80;;;1.33;;
65172;SDS011;69059;52.218;5.172;2023-06-14T12:19:00;3.25;;;1.30;;
65172;SDS011;69059;52.218;5.172;2023-06-14T12:21:34;3.80;;;1.42;;
65172;SDS011;69059;52.218;5.172;2023-06-14T12:24:05;3.83;;;1.35;;
65172;SDS011;69059;52.218;5.172;2023-06-14T12:26:37;3.72;;;1.30;;
65172;SDS011;69059;52.218;5.172;2023-06-14T12:29:05;3.53;;;1.40;;
65172;SDS011;69059;52.218;5.172;2023-06-14T12:31:34;19.52;;;1.60;;
65172;SDS011;69059;52.218;5.172;2023-06-14T12:34:02;1.52;;;1.27;;
65172;SDS011;69059;52.218;5.172;2023-06-14T12:36:30;6.43;;;1.40;;
65172;SDS011;69059;52.218;5.172;2023-06-14T12:38:58;1.67;;;1.10;;
65172;SDS011;69059;52.218;5.172;2023-06-14T12:41:26;4.38;;;1.40;;
65172;SDS011;69059;52.218;5.172;2023-06-14T12:43:55;2.15;;;1.33;;
65172;SDS011;69059;52.218;5.172;2023-06-14T12:46:26;1.98;;;1.13;;
65172;SDS011;69059;52.218;5.172;2023-06-14T12:48:53;3.15;;;1.17;;
65172;SDS011;69059;52.218;5.172;2023-06-14T12:51:22;1.88;;;1.00;;
65172;SDS011;69059;52.218;5.172;2023-06-14T12:53:51;2.25;;;1.10;;
65172;SDS011;69059;52.218;5.172;2023-06-14T12:56:19;3.15;;;1.30;;
65172;SDS011;69059;52.218;5.172;2023-06-14T12:58:50;3.35;;;1.33;;
65172;SDS011;69059;52.218;5.172;2023-06-14T13:01:19;6.22;;;1.27;;
65172;SDS011;69059;52.218;5.172;2023-06-14T13:03:47;5.43;;;1.25;;
65172;SDS011;69059;52.218;5.172;2023-06-14T13:06:17;6.30;;;1.20;;
65172;SDS011;69059;52.218;5.172;2023-06-14T13:08:45;1.80;;;1.10;;
65172;SDS011;69059;52.218;5.172;2023-06-14T13:11:12;2.47;;;1.20;;
65172;SDS011;69059;52.218;5.172;2023-06-14T13:13:40;1.73;;;1.23;;
65172;SDS011;69059;52.218;5.172;2023-06-14T13:16:08;3.17;;;1.20;;
65172;SDS011;69059;52.218;5.172;2023-06-14T13:18:38;4.95;;;1.42;;
65172;SDS011;69059;52.218;5.172;2023-06-14T13:21:06;2.67;;;1.42;;
65172;SDS011;69059;52.218;5.172;2023-06-14T13:23:34;5.20;;;1.30;;
65172;SDS011;69059;52.218;5.172;2023-06-14T13:26:02;2.40;;;1.17;;
65172;SDS011;69059;52.218;5.172;2023-06-14T13:28:29;2.40;;;1.25;;
65172;SDS011;69059;52.218;5.172;2023-06-14T13:30:58;4.63;;;1.08;;
65172;SDS011;69059;52.218;5.172;2023-06-14T13:33:27;1.85;;;1.15;;
65172;SDS011;69059;52.218;5.172;2023-06-14T13:35:56;2.95;;;1.20;;
65172;SDS011;69059;52.218;5.172;2023-06-14T13:38:23;1.67;;;1.20;;
65172;SDS011;69059;52.218;5.172;2023-06-14T13:40:51;3.53;;;1.17;;
65172;SDS011;69059;52.218;5.172;2023-06-14T13:43:19;3.67;;;1.30;;
65172;SDS011;69059;52.218;5.172;2023-06-14T13:45:47;2.15;;;1.30;;
65172;SDS011;69059;52.218;5.172;2023-06-14T13:48:14;1.70;;;1.17;;
65172;SDS011;69059;52.218;5.172;2023-06-14T13:50:42;4.07;;;1.17;;
65172;SDS011;69059;52.218;5.172;2023-06-14T13:53:11;2.45;;;1.20;;
65172;SDS011;69059;52.218;5.172;2023-06-14T13:55:40;2.35;;;1.30;;
65172;SDS011;69059;52.218;5.172;2023-06-14T13:58:08;2.78;;;1.20;;
65172;SDS011;69059;52.218;5.172;2023-06-14T14:00:35;3.40;;;1.30;;
65172;SDS011;69059;52.218;5.172;2023-06-14T14:03:06;2.28;;;1.25;;
65172;SDS011;69059;52.218;5.172;2023-06-14T14:05:35;3.30;;;1.20;;
65172;SDS011;69059;52.218;5.172;2023-06-14T14:08:03;3.67;;;1.20;;
65172;SDS011;69059;52.218;5.172;2023-06-14T14:10:32;3.13;;;1.30;;
65172;SDS011;69059;52.218;5.172;2023-06-14T14:13:00;1.08;;;1.08;;
65172;SDS011;69059;52.218;5.172;2023-06-14T14:15:28;5.50;;;1.73;;
65172;SDS011;69059;52.218;5.172;2023-06-14T14:17:56;1.58;;;1.25;;
65172;SDS011;69059;52.218;5.172;2023-06-14T14:20:24;3.03;;;1.23;;
65172;SDS011;69059;52.218;5.172;2023-06-14T14:22:52;2.38;;;1.10;;
65172;SDS011;69059;52.218;5.172;2023-06-14T14:25:20;1.55;;;1.20;;
65172;SDS011;69059;52.218;5.172;2023-06-14T14:27:49;2.25;;;1.20;;
65172;SDS011;69059;52.218;5.172;2023-06-14T14:30:17;1.90;;;1.20;;
65172;SDS011;69059;52.218;5.172;2023-06-14T14:32:47;1.45;;;1.27;;
65172;SDS011;69059;52.218;5.172;2023-06-14T14:35:16;2.63;;;1.40;;
65172;SDS011;69059;52.218;5.172;2023-06-14T14:37:44;2.88;;;1.40;;
65172;SDS011;69059;52.218;5.172;2023-06-14T14:40:12;2.95;;;1.20;;
65172;SDS011;69059;52.218;5.172;2023-06-14T14:42:40;1.13;;;1.02;;
65172;SDS011;69059;52.218;5.172;2023-06-14T14:45:10;5.05;;;1.38;;
65172;SDS011;69059;52.218;5.172;2023-06-14T14:47:37;4.10;;;1.40;;
65172;SDS011;69059;52.218;5.172;2023-06-14T14:50:05;2.85;;;1.20;;
65172;SDS011;69059;52.218;5.172;2023-06-14T14:52:35;2.47;;;1.25;;
65172;SDS011;69059;52.218;5.172;2023-06-14T14:55:03;2.88;;;1.15;;
65172;SDS011;69059;52.218;5.172;2023-06-14T14:57:31;2.28;;;0.93;;
65172;SDS011;69059;52.218;5.172;2023-06-14T14:59:59;4.03;;;1.20;;
65172;SDS011;69059;52.218;5.172;2023-06-14T15:02:28;2.97;;;1.30;;
65172;SDS011;69059;52.218;5.172;2023-06-14T15:04:56;3.40;;;1.10;;
65172;SDS011;69059;52.218;5.172;2023-06-14T15:07:27;2.40;;;1.00;;
65172;SDS011;69059;52.218;5.172;2023-06-14T15:09:54;1.48;;;1.20;;
65172;SDS011;69059;52.218;5.172;2023-06-14T15:12:22;2.03;;;1.10;;
65172;SDS011;69059;52.218;5.172;2023-06-14T15:14:50;2.17;;;1.10;;
65172;SDS011;69059;52.218;5.172;2023-06-14T15:17:19;3.78;;;1.30;;